Time;durP1;ratioP1;P1;durP2;ratioP2;P2;SDS_P1;SDS_P2;PMS_P1;PMS_P2;Temp;Humidity;BMP_temperature;BMP_pressure;BME280_temperature;BME280_humidity;BME280_pressure;Samples;Min_cycle;Max_cycle;Signal;HPM_P1;HPM_P2
2024/01/14 00:00:49;;;;;;;1.00;1.00;;;-1.20;1.00;;;;;;5069073;28;20176;-84
2024/01/14 00:03:14;;;;;;;1.00;1.00;;;-1.20;1.00;;;;;;5067683;28;20194;-82
2024/01/14 00:05:40;;;;;;;1.00;1.00;;;-1.20;1.00;;;;;;5089650;28;20175;-84
2024/01/14 00:08:05;;;;;;;0.80;0.80;;;-1.20;99.90;;;;;;5091041;28;20163;-84
2024/01/14 00:10:31;;;;;;;0.90;0.90;;;-1.20;99.90;;;;;;5085110;28;20190;-83
2024/01/14 00:12:56;;;;;;;1.00;1.00;;;-1.20;99.90;;;;;;5074250;28;20612;-86
2024/01/14 00:15:22;;;;;;;0.90;0.90;;;-1.20;99.90;;;;;;5074110;28;20202;-86
2024/01/14 00:17:47;;;;;;;0.90;0.90;;;-1.10;99.90;;;;;;5055429;28;20191;-86
2024/01/14 00:20:13;;;;;;;0.90;0.90;;;-1.10;99.90;;;;;;5054554;28;20175;-86
2024/01/14 00:22:39;;;;;;;1.00;1.00;;;-1.10;98.20;;;;;;5053877;28;20186;-84
2024/01/14 00:25:05;;;;;;;0.90;0.90;;;-1.10;99.90;;;;;;5036723;28;20199;-87
2024/01/14 00:27:30;;;;;;;1.00;1.00;;;-1.10;1.00;;;;;;5069735;28;20202;-86
2024/01/14 00:29:57;;;;;;;1.00;1.00;;;-1.10;1.00;;;;;;5068195;28;20244;-86
2024/01/14 00:32:23;;;;;;;0.90;0.90;;;-1.10;1.00;;;;;;5074907;28;20182;-86
2024/01/14 00:34:49;;;;;;;0.90;0.90;;;-1.10;1.00;;;;;;5076001;28;20209;-86
2024/01/14 00:37:14;;;;;;;0.90;0.90;;;-1.00;1.00;;;;;;5077884;28;20201;-87
2024/01/14 00:39:40;;;;;;;0.90;0.90;;;-1.10;1.00;;;;;;5078330;28;20194;-86
2024/01/14 00:42:06;;;;;;;0.90;0.90;;;-1.10;1.00;;;;;;5078497;28;20224;-86
2024/01/14 00:44:32;;;;;;;0.90;0.90;;;-0.80;1.00;;;;;;5078295;28;20283;-87
2024/01/14 00:46:57;;;;;;;0.90;0.90;;;-1.10;1.00;;;;;;5077504;28;20194;-86
2024/01/14 00:49:23;;;;;;;0.90;0.90;;;-1.10;1.00;;;;;;5077608;28;20167;-86
2024/01/14 00:51:48;;;;;;;0.80;0.80;;;-1.10;1.00;;;;;;5077151;28;20185;-87
2024/01/14 00:54:14;;;;;;;0.90;0.90;;;-1.10;1.00;;;;;;5077983;28;20202;-86
2024/01/14 00:56:39;;;;;;;0.90;0.90;;;-1.10;1.00;;;;;;5059587;28;20194;-86
2024/01/14 00:59:05;;;;;;;0.90;0.90;;;-1.10;1.00;;;;;;5078433;28;20171;-86
2024/01/14 01:01:31;;;;;;;0.93;0.93;;;-1.10;1.00;;;;;;5077866;28;20663;-86
2024/01/14 01:03:57;;;;;;;0.83;0.83;;;-1.20;65.70;;;;;;5077433;28;20178;-87
2024/01/14 01:06:22;;;;;;;1.00;1.00;;;-1.20;99.90;;;;;;5076037;28;20195;-86
2024/01/14 01:08:48;;;;;;;1.00;1.00;;;-1.20;99.90;;;;;;5076559;28;20170;-86
2024/01/14 01:11:17;;;;;;;0.90;0.90;;;-1.10;99.90;;;;;;5077388;28;20170;-85
2024/01/14 01:13:42;;;;;;;0.90;0.90;;;-1.10;99.90;;;;;;5077106;28;20659;-86
2024/01/14 01:16:08;;;;;;;1.00;1.00;;;-1.00;1.00;;;;;;5065816;28;20195;-86
2024/01/14 01:18:34;;;;;;;0.97;0.97;;;-1.20;1.00;;;;;;5057168;28;20178;-86
2024/01/14 01:21:00;;;;;;;0.90;0.90;;;-1.20;1.00;;;;;;5074122;28;20171;-84
2024/01/14 01:23:25;;;;;;;0.90;0.90;;;-1.30;99.90;;;;;;5077003;28;20175;-87
2024/01/14 01:25:51;;;;;;;0.97;0.97;;;-1.30;99.90;;;;;;5076081;28;20178;-86
2024/01/14 01:28:17;;;;;;;0.97;0.97;;;-1.30;99.90;;;;;;5074970;28;20174;-84
2024/01/14 01:30:43;;;;;;;1.00;1.00;;;-1.30;1.00;;;;;;5073776;28;20218;-85
2024/01/14 01:33:08;;;;;;;1.00;1.00;;;-1.30;1.00;;;;;;5073654;28;20671;-85
2024/01/14 01:35:34;;;;;;;0.90;0.90;;;-1.20;1.00;;;;;;5072996;28;20205;-85
2024/01/14 01:37:59;;;;;;;1.00;1.00;;;-1.20;1.00;;;;;;5073308;28;20202;-85
2024/01/14 01:40:25;;;;;;;0.90;0.90;;;-1.10;1.00;;;;;;5073860;28;20167;-85
2024/01/14 01:42:51;;;;;;;1.00;1.00;;;-1.10;1.00;;;;;;5081849;28;20192;-81
2024/01/14 01:45:17;;;;;;;0.97;0.97;;;-1.10;99.90;;;;;;5091334;28;20201;-86
2024/01/14 01:47:43;;;;;;;0.90;0.90;;;-1.10;99.90;;;;;;5083282;28;20226;-85
2024/01/14 01:50:09;;;;;;;0.90;0.90;;;-1.00;1.00;;;;;;5084767;28;20178;-86
2024/01/14 01:52:36;;;;;;;0.90;0.90;;;-1.00;1.00;;;;;;5073088;28;20183;-86
2024/01/14 01:55:04;;;;;;;0.90;0.90;;;-1.10;1.00;;;;;;5064735;28;20271;-85
2024/01/14 01:57:31;;;;;;;0.90;0.90;;;-1.10;1.00;;;;;;5061081;28;20721;-84
2024/01/14 01:59:57;;;;;;;0.93;0.93;;;-1.10;89.80;;;;;;5056358;28;20250;-85
2024/01/14 02:02:23;;;;;;;0.83;0.83;;;-1.10;97.50;;;;;;5055989;28;20183;-86
2024/01/14 02:04:49;;;;;;;0.90;0.90;;;-1.00;1.00;;;;;;5054939;28;20171;-85
2024/01/14 02:07:16;;;;;;;1.00;1.00;;;-1.00;1.00;;;;;;5054838;28;20195;-85
2024/01/14 02:09:42;;;;;;;1.00;1.00;;;-1.00;1.00;;;;;;5067750;28;20175;-87
2024/01/14 02:12:07;;;;;;;0.90;0.90;;;-1.00;1.00;;;;;;5075537;28;20176;-86
2024/01/14 02:14:33;;;;;;;0.93;0.93;;;-1.00;1.00;;;;;;5057401;28;20266;-87
2024/01/14 02:16:59;;;;;;;0.93;0.93;;;-1.20;1.00;;;;;;5075160;28;20195;-85
2024/01/14 02:19:24;;;;;;;1.00;1.00;;;-1.30;1.00;;;;;;5063139;28;20608;-85
2024/01/14 02:21:59;;;;;;;1.00;1.00;;;-1.30;1.00;;;;;;5055165;28;20185;-83
2024/01/14 02:24:28;;;;;;;0.90;0.90;;;-1.40;1.00;;;;;;5037337;28;20171;-86
2024/01/14 02:26:54;;;;;;;1.00;1.00;;;-1.50;99.90;;;;;;5054477;28;20782;-85
2024/01/14 02:29:20;;;;;;;1.00;1.00;;;-1.40;99.90;;;;;;5054277;28;20183;-86
2024/01/14 02:31:46;;;;;;;0.90;0.90;;;-1.00;99.90;;;;;;5055278;28;20320;-86
2024/01/14 02:34:12;;;;;;;1.00;1.00;;;-1.50;1.00;;;;;;5054476;28;20249;-85
2024/01/14 02:36:38;;;;;;;1.03;1.03;;;-1.50;99.90;;;;;;5065340;28;20202;-86
2024/01/14 02:39:04;;;;;;;0.90;0.90;;;-1.60;1.00;;;;;;5074334;28;20201;-86
2024/01/14 02:41:31;;;;;;;0.90;0.90;;;-1.60;1.00;;;;;;5074574;28;20680;-85
2024/01/14 02:43:56;;;;;;;0.90;0.90;;;-1.60;1.00;;;;;;5074687;28;20179;-84
2024/01/14 02:46:24;;;;;;;1.00;1.00;;;-1.60;1.00;;;;;;5074819;28;20272;-86
2024/01/14 02:48:49;;;;;;;1.00;1.00;;;-1.70;1.00;;;;;;5075011;28;20174;-86
2024/01/14 02:51:15;;;;;;;1.00;1.00;;;-1.60;1.00;;;;;;5056886;28;20170;-86
2024/01/14 02:53:42;;;;;;;1.00;1.00;;;-1.80;1.00;;;;;;5076162;28;20183;-82
2024/01/14 02:56:09;;;;;;;0.90;0.90;;;-1.60;99.90;;;;;;5097397;28;20194;-80
2024/01/14 02:58:35;;;;;;;1.00;1.00;;;-1.60;1.00;;;;;;5097905;28;20181;-81
2024/01/14 03:01:01;;;;;;;1.00;1.00;;;-1.60;99.90;;;;;;5096161;28;20174;-85
2024/01/14 03:03:27;;;;;;;0.90;0.90;;;-1.70;1.00;;;;;;5070880;28;20466;-86
2024/01/14 03:05:52;;;;;;;0.90;0.90;;;-1.70;1.00;;;;;;5072111;28;20189;-83
2024/01/14 03:08:18;;;;;;;0.90;0.90;;;-1.70;99.90;;;;;;5073461;28;20171;-85
2024/01/14 03:10:44;;;;;;;0.87;0.87;;;-1.70;1.00;;;;;;5073432;28;20196;-86
2024/01/14 03:13:09;;;;;;;1.00;1.00;;;-1.80;99.90;;;;;;5073243;28;20174;-86
2024/01/14 03:15:35;;;;;;;0.90;0.90;;;-1.80;1.00;;;;;;5070416;28;20209;-84
2024/01/14 03:18:01;;;;;;;1.00;1.00;;;-1.90;1.00;;;;;;5035425;28;20521;-84
2024/01/14 03:20:27;;;;;;;0.97;0.97;;;-1.90;99.90;;;;;;5053110;28;20220;-85
2024/01/14 03:22:53;;;;;;;0.90;0.90;;;-1.80;99.90;;;;;;5052626;28;20257;-84
2024/01/14 03:25:18;;;;;;;1.00;1.00;;;-1.70;1.00;;;;;;5052445;28;20202;-85
2024/01/14 03:27:44;;;;;;;0.97;0.97;;;-1.40;1.00;;;;;;5070597;28;20205;-86
2024/01/14 03:30:10;;;;;;;0.90;0.90;;;-1.70;1.00;;;;;;5072641;28;20189;-83
2024/01/14 03:32:36;;;;;;;1.00;1.00;;;-1.60;1.00;;;;;;5054734;28;20197;-84
2024/01/14 03:35:02;;;;;;;1.00;1.00;;;-1.60;1.00;;;;;;5054410;28;20210;-85
2024/01/14 03:37:28;;;;;;;0.90;0.90;;;-1.60;1.00;;;;;;5072831;28;20752;-84
2024/01/14 03:39:54;;;;;;;1.00;1.00;;;-1.70;1.00;;;;;;5072425;28;20214;-84
2024/01/14 03:42:19;;;;;;;0.90;0.90;;;-1.80;99.70;;;;;;5072429;28;20167;-84
2024/01/14 03:44:45;;;;;;;0.87;0.87;;;-1.90;99.90;;;;;;5071708;28;20171;-84
2024/01/14 03:47:10;;;;;;;0.90;0.90;;;-2.00;99.90;;;;;;5048105;28;20176;-80
2024/01/14 03:49:36;;;;;;;1.00;1.00;;;-2.10;1.00;;;;;;5077045;28;20171;-81
2024/01/14 03:52:01;;;;;;;0.97;0.97;;;-2.00;1.00;;;;;;5077142;28;20171;-83
2024/01/14 03:54:27;;;;;;;1.00;1.00;;;-2.00;1.00;;;;;;5077748;28;20199;-80
2024/01/14 03:56:52;;;;;;;0.93;0.93;;;-2.10;1.00;;;;;;5066319;28;20280;-87
2024/01/14 03:59:18;;;;;;;1.00;1.00;;;-2.10;1.00;;;;;;5050606;28;20228;-86
2024/01/14 04:01:43;;;;;;;0.90;0.90;;;-2.20;99.90;;;;;;5074731;28;20171;-86
2024/01/14 04:04:09;;;;;;;0.90;0.90;;;-2.30;1.00;;;;;;5074436;28;20599;-86
2024/01/14 04:06:35;;;;;;;0.90;0.90;;;-2.20;1.00;;;;;;5065983;28;20194;-85
2024/01/14 04:09:01;;;;;;;1.00;1.00;;;-2.20;1.00;;;;;;5068391;28;20531;-85
2024/01/14 04:11:27;;;;;;;1.00;1.00;;;-2.10;99.90;;;;;;5080425;28;20170;-87
2024/01/14 04:13:52;;;;;;;0.90;0.90;;;-2.10;99.90;;;;;;5079757;28;20255;-87
2024/01/14 04:16:18;;;;;;;1.00;1.00;;;-2.20;99.90;;;;;;5077823;28;20198;-86
2024/01/14 04:18:44;;;;;;;1.10;1.10;;;-2.30;1.00;;;;;;5079384;28;20177;-86
2024/01/14 04:21:22;;;;;;;0.90;0.90;;;-2.30;1.00;;;;;;5079341;28;20170;-86
2024/01/14 04:23:48;;;;;;;0.90;0.90;;;-2.30;99.90;;;;;;5078911;28;20174;-86
2024/01/14 04:26:17;;;;;;;0.93;0.93;;;-2.30;99.90;;;;;;5078657;28;20664;-86
2024/01/14 04:28:43;;;;;;;1.00;1.00;;;-2.40;99.90;;;;;;5078681;28;20188;-87
2024/01/14 04:31:09;;;;;;;1.00;1.00;;;-2.30;99.90;;;;;;5078705;28;20273;-86
2024/01/14 04:33:34;;;;;;;1.00;1.00;;;-2.40;99.90;;;;;;5078895;28;20587;-86
2024/01/14 04:36:01;;;;;;;1.00;1.00;;;-2.40;1.00;;;;;;5077896;28;20582;-87
2024/01/14 04:38:27;;;;;;;0.90;0.90;;;-2.40;1.00;;;;;;5078961;28;20186;-86
2024/01/14 04:40:52;;;;;;;0.97;0.97;;;-2.40;99.90;;;;;;5078737;28;20178;-87
2024/01/14 04:43:18;;;;;;;1.00;1.00;;;-2.40;1.00;;;;;;5088118;28;20167;-81
2024/01/14 04:45:43;;;;;;;0.90;0.90;;;-2.50;1.00;;;;;;5081572;28;20264;-82
2024/01/14 04:48:09;;;;;;;0.90;0.90;;;-2.60;1.00;;;;;;5098719;28;20205;-82
2024/01/14 04:50:36;;;;;;;0.90;0.90;;;-2.50;1.00;;;;;;5083546;28;20652;-86
2024/01/14 04:53:02;;;;;;;0.90;0.90;;;-2.60;1.00;;;;;;5075427;28;20656;-86
2024/01/14 04:55:28;;;;;;;0.90;0.90;;;-2.50;1.00;;;;;;5056884;28;20210;-85
2024/01/14 04:57:53;;;;;;;1.00;1.00;;;-2.50;1.00;;;;;;5055795;28;20638;-83
2024/01/14 05:00:19;;;;;;;1.00;1.00;;;-2.50;1.00;;;;;;5055606;28;20179;-84
2024/01/14 05:02:45;;;;;;;0.90;0.90;;;-2.40;1.00;;;;;;5055468;28;20258;-85
2024/01/14 05:05:10;;;;;;;1.00;1.00;;;-2.40;1.00;;;;;;5055275;28;20232;-84
2024/01/14 05:07:36;;;;;;;0.93;0.93;;;-2.40;99.90;;;;;;5053701;28;20187;-84
2024/01/14 05:10:01;;;;;;;1.00;1.00;;;-2.40;99.90;;;;;;5066548;28;20174;-86
2024/01/14 05:12:27;;;;;;;0.90;0.90;;;-2.40;99.90;;;;;;5074640;28;20171;-87
2024/01/14 05:14:52;;;;;;;0.90;0.90;;;-2.40;99.90;;;;;;5075343;28;20210;-85
2024/01/14 05:17:19;;;;;;;1.00;1.00;;;-2.40;99.90;;;;;;5067797;28;20232;-85
2024/01/14 05:19:45;;;;;;;0.93;0.93;;;-2.30;99.90;;;;;;5071434;28;20193;-86
2024/01/14 05:22:10;;;;;;;0.90;0.90;;;-2.30;99.90;;;;;;5074057;28;20171;-84
2024/01/14 05:24:36;;;;;;;0.90;0.90;;;-2.40;99.90;;;;;;5056516;28;20213;-85
2024/01/14 05:27:01;;;;;;;0.90;0.90;;;-2.30;99.90;;;;;;5073365;28;20246;-85
2024/01/14 05:29:27;;;;;;;1.00;1.00;;;-2.40;67.20;;;;;;5074298;28;20175;-86
2024/01/14 05:31:52;;;;;;;0.90;0.90;;;-2.40;36.00;;;;;;5065782;28;20179;-82
2024/01/14 05:34:18;;;;;;;0.90;0.90;;;-2.50;99.90;;;;;;5078544;28;20286;-81
2024/01/14 05:36:43;;;;;;;0.90;0.90;;;-2.50;99.90;;;;;;5066343;28;20332;-86
2024/01/14 05:39:09;;;;;;;0.90;0.90;;;-2.60;99.90;;;;;;5065432;28;20251;-86
2024/01/14 05:41:35;;;;;;;0.90;0.90;;;-2.70;99.90;;;;;;5077246;28;20300;-85
2024/01/14 05:44:00;;;;;;;0.83;0.83;;;-2.70;99.90;;;;;;5093372;28;20170;-80
2024/01/14 05:46:26;;;;;;;0.90;0.90;;;-2.60;99.90;;;;;;5091676;28;20233;-85
2024/01/14 05:48:51;;;;;;;1.00;1.00;;;-2.50;99.90;;;;;;5097557;28;20189;-81
2024/01/14 05:51:17;;;;;;;1.00;1.00;;;-2.40;99.90;;;;;;5099054;28;20175;-82
2024/01/14 05:53:42;;;;;;;0.90;0.90;;;-2.30;94.80;;;;;;5098868;28;20167;-80
2024/01/14 05:56:08;;;;;;;0.90;0.90;;;-2.30;1.00;;;;;;5098842;28;20193;-81
2024/01/14 05:58:34;;;;;;;1.00;1.00;;;-2.20;1.00;;;;;;5097607;28;20256;-84
2024/01/14 06:01:00;;;;;;;0.87;0.87;;;-2.20;1.00;;;;;;5097716;28;20273;-82
2024/01/14 06:03:26;;;;;;;1.00;1.00;;;-2.20;1.00;;;;;;5082670;28;20210;-84
2024/01/14 06:05:52;;;;;;;1.10;1.10;;;-2.10;1.00;;;;;;5057360;28;20171;-83
2024/01/14 06:08:17;;;;;;;0.90;0.90;;;-2.10;1.00;;;;;;5067964;28;20179;-87
2024/01/14 06:10:43;;;;;;;0.90;0.90;;;-2.20;1.00;;;;;;5039815;28;20194;-86
2024/01/14 06:13:08;;;;;;;0.97;0.97;;;-2.40;1.00;;;;;;5062838;28;20179;-85
2024/01/14 06:15:34;;;;;;;0.90;0.90;;;-2.40;50.40;;;;;;5064562;28;20199;-87
2024/01/14 06:18:00;;;;;;;1.00;1.00;;;-2.50;1.00;;;;;;5056835;28;20198;-86
2024/01/14 06:20:25;;;;;;;0.90;0.90;;;-2.40;21.10;;;;;;5057620;28;20258;-87
2024/01/14 06:22:51;;;;;;;1.00;1.00;;;-2.50;1.00;;;;;;5066737;28;20246;-83
2024/01/14 06:25:16;;;;;;;1.00;1.00;;;-2.60;1.00;;;;;;5065232;28;20194;-85
2024/01/14 06:27:42;;;;;;;0.90;0.90;;;-2.50;99.90;;;;;;5068962;28;20201;-83
2024/01/14 06:30:08;;;;;;;0.90;0.90;;;-2.50;99.90;;;;;;5080822;28;20270;-86
2024/01/14 06:32:34;;;;;;;0.97;0.97;;;-2.50;99.90;;;;;;5092571;28;20232;-83
2024/01/14 06:35:00;;;;;;;1.03;1.03;;;-2.50;99.90;;;;;;5088366;28;20202;-87
2024/01/14 06:37:25;;;;;;;0.90;0.90;;;-2.40;27.90;;;;;;5075806;28;20680;-87
2024/01/14 06:39:51;;;;;;;0.93;0.93;;;-2.40;1.00;;;;;;5075016;28;20606;-86
2024/01/14 06:42:16;;;;;;;1.00;1.00;;;-2.40;1.00;;;;;;5077264;28;20175;-86
2024/01/14 06:44:42;;;;;;;0.90;0.90;;;-2.30;1.00;;;;;;5062133;28;20702;-87
2024/01/14 06:47:07;;;;;;;1.00;1.00;;;-2.20;1.00;;;;;;5055183;28;20188;-86
2024/01/14 06:49:33;;;;;;;1.00;1.00;;;-2.10;99.90;;;;;;5070020;28;20205;-85
2024/01/14 06:51:58;;;;;;;1.00;1.00;;;-2.10;49.20;;;;;;5057967;28;20525;-87
2024/01/14 06:54:24;;;;;;;1.00;1.00;;;-2.00;1.00;;;;;;5075516;28;20194;-87
2024/01/14 06:56:49;;;;;;;0.90;0.90;;;-2.00;1.00;;;;;;5075672;28;20221;-87
2024/01/14 06:59:23;;;;;;;1.00;1.00;;;-2.00;1.00;;;;;;5076103;28;20202;-84
2024/01/14 07:01:50;;;;;;;0.97;0.97;;;-2.10;1.00;;;;;;5075466;28;20214;-86
2024/01/14 07:04:17;;;;;;;1.00;1.00;;;-2.10;99.90;;;;;;5057679;28;20655;-86
2024/01/14 07:06:42;;;;;;;0.90;0.90;;;-2.10;1.00;;;;;;5074667;28;20194;-87
2024/01/14 07:09:12;;;;;;;0.97;0.97;;;-2.10;1.00;;;;;;5075177;28;20567;-86
2024/01/14 07:11:38;;;;;;;1.00;1.00;;;-2.10;1.00;;;;;;5069563;28;20171;-85
2024/01/14 07:14:03;;;;;;;1.00;1.00;;;-2.10;99.90;;;;;;5059279;28;20220;-84
2024/01/14 07:16:29;;;;;;;1.00;1.00;;;-2.20;99.90;;;;;;5060996;28;20703;-85
2024/01/14 07:18:55;;;;;;;0.90;0.90;;;-2.20;1.00;;;;;;5072040;28;20706;-82
2024/01/14 07:21:23;;;;;;;0.90;0.90;;;-2.20;99.90;;;;;;5054163;28;20174;-87
2024/01/14 07:23:49;;;;;;;0.97;0.97;;;-2.10;99.90;;;;;;5070598;28;20174;-85
2024/01/14 07:26:16;;;;;;;1.00;1.00;;;-2.30;1.00;;;;;;5072311;28;20541;-87
2024/01/14 07:28:42;;;;;;;0.93;0.93;;;-2.30;99.90;;;;;;5073951;28;20187;-89
2024/01/14 07:31:08;;;;;;;1.07;1.07;;;-2.40;1.00;;;;;;5074021;28;20177;-84
2024/01/14 07:33:33;;;;;;;1.00;1.00;;;-2.60;1.00;;;;;;5071239;28;20244;-86
2024/01/14 07:36:01;;;;;;;1.00;1.00;;;-2.80;1.00;;;;;;5072798;28;20210;-86
2024/01/14 07:38:27;;;;;;;0.90;0.90;;;-2.90;99.90;;;;;;5054545;28;20221;-86
2024/01/14 07:40:52;;;;;;;1.00;1.00;;;-3.10;1.00;;;;;;5057388;28;20183;-87
2024/01/14 07:43:18;;;;;;;0.97;0.97;;;-3.10;99.90;;;;;;5058362;28;20200;-86
2024/01/14 07:45:45;;;;;;;1.00;1.00;;;-3.10;99.90;;;;;;5074784;28;20205;-81
2024/01/14 07:48:10;;;;;;;1.00;1.00;;;-3.10;99.90;;;;;;5074347;28;20171;-87
2024/01/14 07:50:36;;;;;;;0.90;0.90;;;-3.20;99.90;;;;;;5073999;28;20266;-86
2024/01/14 07:53:01;;;;;;;1.00;1.00;;;-3.10;99.90;;;;;;5073607;28;20228;-86
2024/01/14 07:55:27;;;;;;;0.90;0.90;;;-2.90;99.90;;;;;;5074240;28;20216;-86
2024/01/14 07:57:52;;;;;;;1.00;1.00;;;-2.90;1.00;;;;;;5056199;28;20198;-85
2024/01/14 08:00:18;;;;;;;0.90;0.90;;;-2.90;1.00;;;;;;5081574;28;20170;-84
2024/01/14 08:02:44;;;;;;;1.10;1.10;;;-3.00;21.40;;;;;;5088361;28;20201;-82
2024/01/14 08:05:11;;;;;;;1.00;1.00;;;-3.00;99.90;;;;;;5073775;28;20254;-84
2024/01/14 08:07:36;;;;;;;0.90;0.90;;;-2.90;99.90;;;;;;5086098;28;20206;-87
2024/01/14 08:10:02;;;;;;;0.90;0.90;;;-3.00;99.90;;;;;;5073355;28;20206;-87
2024/01/14 08:12:28;;;;;;;0.90;0.90;;;-3.00;99.90;;;;;;5072453;28;20186;-87
2024/01/14 08:14:54;;;;;;;1.00;1.00;;;-2.90;99.90;;;;;;5073952;28;20281;-88
2024/01/14 08:17:20;;;;;;;1.00;1.00;;;-3.00;99.90;;;;;;5072956;28;20909;-88
2024/01/14 08:19:46;;;;;;;0.90;0.90;;;-3.10;99.90;;;;;;5071914;28;20202;-88
2024/01/14 08:22:15;;;;;;;0.90;0.90;;;-3.10;99.90;;;;;;5072507;28;20206;-88
2024/01/14 08:24:41;;;;;;;0.97;0.97;;;-3.20;1.00;;;;;;5072931;28;20170;-88
2024/01/14 08:27:08;;;;;;;0.93;0.93;;;-3.30;1.00;;;;;;5072434;28;20190;-87
2024/01/14 08:29:33;;;;;;;0.90;0.90;;;-3.30;1.00;;;;;;5072623;28;20224;-88
2024/01/14 08:31:59;;;;;;;0.93;0.93;;;-3.20;1.00;;;;;;5073420;28;20175;-88
2024/01/14 08:34:25;;;;;;;1.00;1.00;;;-3.20;1.00;;;;;;5072671;28;20194;-88
2024/01/14 08:36:51;;;;;;;0.93;0.93;;;-3.20;1.00;;;;;;5072653;28;20213;-89
2024/01/14 08:39:17;;;;;;;0.90;0.90;;;-3.10;1.00;;;;;;5072373;28;20672;-88
2024/01/14 08:41:42;;;;;;;1.00;1.00;;;-3.10;1.00;;;;;;5073514;28;20652;-86
2024/01/14 08:44:10;;;;;;;1.10;1.10;;;-3.10;99.90;;;;;;5035900;28;20557;-90
2024/01/14 08:46:39;;;;;;;0.90;0.90;;;-3.20;99.90;;;;;;5054777;28;20183;-91
2024/01/14 08:49:05;;;;;;;0.90;0.90;;;-3.10;99.90;;;;;;5054593;28;20262;-89
2024/01/14 08:51:30;;;;;;;1.00;1.00;;;-2.90;99.90;;;;;;5053759;28;20195;-89
2024/01/14 08:54:00;;;;;;;1.00;1.00;;;-3.10;99.90;;;;;;5062510;28;20182;-88
2024/01/14 08:56:28;;;;;;;1.00;1.00;;;-2.90;1.00;;;;;;5065305;28;20213;-86
2024/01/14 08:58:54;;;;;;;1.00;1.00;;;-2.70;1.00;;;;;;5070645;28;20183;-83
2024/01/14 09:01:20;;;;;;;1.00;1.00;;;-2.70;25.40;;;;;;5089167;28;20202;-86
2024/01/14 09:03:46;;;;;;;0.90;0.90;;;-2.70;1.00;;;;;;5077984;28;20203;-87
2024/01/14 09:06:11;;;;;;;0.90;0.90;;;-2.70;99.90;;;;;;5058979;28;20198;-89
2024/01/14 09:08:37;;;;;;;0.90;0.90;;;-2.80;1.00;;;;;;5072568;28;20250;-86
2024/01/14 09:11:03;;;;;;;0.90;0.90;;;-2.90;1.00;;;;;;5092090;28;20174;-87
2024/01/14 09:13:28;;;;;;;0.90;0.90;;;-3.00;99.90;;;;;;5076810;28;20228;-85
2024/01/14 09:15:54;;;;;;;0.90;0.90;;;-3.00;99.90;;;;;;5093303;28;20198;-89
2024/01/14 09:18:19;;;;;;;0.90;0.90;;;-3.00;99.90;;;;;;5093792;28;20189;-87
2024/01/14 09:20:45;;;;;;;1.00;1.00;;;-3.10;99.90;;;;;;5079691;28;20206;-85
2024/01/14 09:23:10;;;;;;;1.00;1.00;;;-3.20;99.90;;;;;;5075542;28;20179;-87
2024/01/14 09:25:36;;;;;;;1.00;1.00;;;-3.00;1.00;;;;;;5078943;28;20198;-88
2024/01/14 09:28:01;;;;;;;1.00;1.00;;;-2.80;1.00;;;;;;5077760;28;20182;-87
2024/01/14 09:30:27;;;;;;;1.00;1.00;;;-2.70;81.10;;;;;;5078217;28;20225;-87
2024/01/14 09:32:52;;;;;;;0.97;0.97;;;-2.80;1.00;;;;;;5081537;28;20179;-86
2024/01/14 09:35:18;;;;;;;1.00;1.00;;;-2.90;1.00;;;;;;5098160;28;20210;-85
2024/01/14 09:37:43;;;;;;;1.00;1.00;;;-2.80;1.00;;;;;;5093356;28;20198;-87
2024/01/14 09:40:09;;;;;;;0.90;0.90;;;-2.80;1.00;;;;;;5077907;28;20265;-86
2024/01/14 09:42:39;;;;;;;1.00;1.00;;;-2.60;99.90;;;;;;5058063;28;20174;-88
2024/01/14 09:45:05;;;;;;;0.90;0.90;;;-2.60;1.00;;;;;;5072927;28;20213;-86
2024/01/14 09:47:33;;;;;;;1.00;1.00;;;-2.60;1.00;;;;;;5080292;28;20202;-86
2024/01/14 09:50:00;;;;;;;1.00;1.00;;;-2.40;1.00;;;;;;5080499;28;20194;-86
2024/01/14 09:52:27;;;;;;;0.80;0.80;;;-2.20;99.90;;;;;;5080680;28;20174;-85
2024/01/14 09:54:52;;;;;;;0.90;0.90;;;-2.20;1.00;;;;;;5068300;28;20190;-84
2024/01/14 09:57:20;;;;;;;1.10;1.10;;;-2.00;99.90;;;;;;5082019;28;20224;-83
2024/01/14 09:59:48;;;;;;;0.90;0.90;;;-1.50;99.90;;;;;;5099861;28;20158;-86
2024/01/14 10:02:14;;;;;;;0.90;0.90;;;-1.10;99.90;;;;;;5082415;28;20175;-81
2024/01/14 10:04:40;;;;;;;0.90;0.90;;;-0.90;1.00;;;;;;5099465;28;20163;-84
2024/01/14 10:07:11;;;;;;;0.90;0.90;;;-0.30;1.00;;;;;;5097595;28;20193;-83
2024/01/14 10:09:40;;;;;;;0.90;0.90;;;0.10;99.90;;;;;;5078598;28;20176;-88
2024/01/14 10:12:08;;;;;;;1.00;1.00;;;0.30;99.90;;;;;;5076140;28;20166;-88
2024/01/14 10:14:35;;;;;;;0.90;0.90;;;0.90;66.80;;;;;;5076187;28;20202;-86
2024/01/14 10:17:00;;;;;;;0.93;0.93;;;1.80;1.00;;;;;;5073032;28;20228;-87
2024/01/14 10:19:26;;;;;;;0.90;0.90;;;2.80;1.00;;;;;;5075489;28;20178;-90
2024/01/14 10:21:57;;;;;;;0.70;0.70;;;3.50;1.00;;;;;;5075090;28;20182;-88
2024/01/14 10:24:23;;;;;;;0.70;0.70;;;3.50;1.00;;;;;;5074597;28;20174;-87
2024/01/14 10:26:53;;;;;;;0.70;0.70;;;3.00;1.00;;;;;;5073544;28;20196;-90
2024/01/14 10:29:19;;;;;;;0.77;0.77;;;3.30;1.00;;;;;;5074514;28;20509;-90
2024/01/14 10:31:45;;;;;;;0.70;0.70;;;3.80;1.00;;;;;;5074740;28;20174;-90
2024/01/14 10:34:11;;;;;;;0.77;0.77;;;4.10;1.00;;;;;;5074932;28;20178;-90
2024/01/14 10:36:38;;;;;;;0.70;0.70;;;5.00;1.00;;;;;;5071815;28;20251;-90
2024/01/14 10:39:05;;;;;;;0.70;0.70;;;4.90;1.00;;;;;;5074268;28;20582;-88
2024/01/14 10:41:32;;;;;;;0.60;0.60;;;4.90;1.00;;;;;;5056946;28;20175;-88
2024/01/14 10:43:58;;;;;;;0.80;0.80;;;5.00;1.00;;;;;;5055441;28;20227;-88
2024/01/14 10:46:26;;;;;;;0.70;0.70;;;4.60;1.00;;;;;;5072266;28;20199;-90
2024/01/14 10:49:06;;;;;;;0.70;0.70;;;4.80;1.00;;;;;;5065461;28;20320;-90
2024/01/14 10:51:40;;;;;;;0.70;0.70;;;5.00;1.00;;;;;;5074401;28;20315;-91
2024/01/14 10:54:15;;;;;;;0.70;0.70;;;5.30;1.00;;;;;;5074545;28;20178;-89
2024/01/14 10:56:48;;;;;;;0.80;0.80;;;4.70;1.00;;;;;;5073347;28;20182;-90
2024/01/14 10:59:15;;;;;;;0.70;0.70;;;4.40;1.00;;;;;;5069198;28;20171;-90
2024/01/14 11:01:49;;;;;;;0.80;0.80;;;4.60;1.00;;;;;;5075198;28;20193;-89
2024/01/14 11:04:16;;;;;;;0.80;0.80;;;3.90;1.00;;;;;;5070766;28;20205;-90
2024/01/14 11:06:45;;;;;;;0.87;0.87;;;3.10;1.00;;;;;;5072776;28;20704;-89
2024/01/14 11:09:11;;;;;;;0.70;0.70;;;3.40;1.00;;;;;;5073627;28;20694;-89
2024/01/14 11:11:48;;;;;;;0.80;0.80;;;4.40;1.00;;;;;;5073772;28;20171;-89
2024/01/14 11:14:28;;;;;;;0.73;0.73;;;5.40;1.00;;;;;;5072968;28;20175;-89
2024/01/14 11:17:11;;;;;;;0.70;0.70;;;5.50;1.00;;;;;;5073901;28;20281;-90
2024/01/14 11:19:40;;;;;;;0.70;0.70;;;5.70;1.00;;;;;;5074176;28;20238;-89
2024/01/14 11:22:20;;;;;;;0.60;0.60;;;6.50;1.00;;;;;;5053677;28;20178;-88
2024/01/14 11:24:46;;;;;;;0.80;0.80;;;6.50;1.00;;;;;;5074346;28;20566;-90
2024/01/14 11:27:14;;;;;;;0.73;0.73;;;6.10;1.00;;;;;;5070566;28;20285;-89
2024/01/14 11:29:40;;;;;;;0.60;0.60;;;5.50;1.00;;;;;;5072751;28;20221;-90
2024/01/14 11:32:11;;;;;;;0.50;0.50;;;6.00;1.00;;;;;;5072895;28;20185;-89
2024/01/14 11:34:57;;;;;;;0.50;0.50;;;6.70;1.00;;;;;;5072550;28;20197;-90
2024/01/14 11:37:29;;;;;;;0.60;0.60;;;7.40;1.00;;;;;;5072209;28;20194;-89
2024/01/14 11:40:08;;;;;;;0.70;0.70;;;7.60;1.00;;;;;;5052156;28;20186;-89
2024/01/14 11:43:07;;;;;;;0.70;0.70;;;7.90;1.00;;;;;;5072188;28;20251;-89
2024/01/14 11:45:34;;;;;;;0.80;0.80;;;7.10;1.00;;;;;;5059632;28;20225;-85
2024/01/14 11:48:05;;;;;;;0.80;0.80;;;6.00;1.00;;;;;;5070139;28;20174;-87
2024/01/14 11:50:33;;;;;;;0.80;0.80;;;5.20;1.00;;;;;;5071385;28;20166;-88
2024/01/14 11:53:00;;;;;;;0.80;0.80;;;4.90;1.00;;;;;;5072050;28;20186;-87
2024/01/14 11:55:28;;;;;;;0.60;0.60;;;4.40;1.00;;;;;;5073874;28;20206;-90
2024/01/14 11:57:55;;;;;;;0.80;0.80;;;4.00;1.00;;;;;;5053056;28;20236;-87
2024/01/14 12:00:26;;;;;;;0.70;0.70;;;3.80;1.00;;;;;;5071622;28;20593;-85
2024/01/14 12:03:10;;;;;;;0.80;0.80;;;3.60;1.00;;;;;;5071303;28;20637;-86
2024/01/14 12:05:36;;;;;;;0.90;0.90;;;3.50;1.00;;;;;;5070332;28;20181;-88
2024/01/14 12:08:02;;;;;;;0.90;0.90;;;3.60;1.00;;;;;;5069936;28;20673;-88
2024/01/14 12:10:31;;;;;;;0.90;0.90;;;3.90;1.00;;;;;;5070817;28;20279;-92
2024/01/14 12:12:58;;;;;;;0.90;0.90;;;4.10;1.00;;;;;;5070669;28;20171;-85
2024/01/14 12:15:24;;;;;;;0.90;0.90;;;4.00;1.00;;;;;;5069637;28;20210;-87
2024/01/14 12:17:54;;;;;;;0.90;0.90;;;4.20;1.00;;;;;;5070492;28;20195;-88
2024/01/14 12:20:23;;;;;;;0.80;0.80;;;4.20;1.00;;;;;;5069256;28;20553;-83
2024/01/14 12:22:55;;;;;;;0.80;0.80;;;4.70;1.00;;;;;;5055577;28;20178;-86
2024/01/14 12:25:20;;;;;;;0.80;0.80;;;4.30;1.00;;;;;;5071435;28;20183;-88
2024/01/14 12:27:46;;;;;;;0.80;0.80;;;4.10;1.00;;;;;;5072088;28;20311;-90
2024/01/14 12:30:21;;;;;;;0.80;0.80;;;4.30;1.00;;;;;;5072747;28;20182;-87
2024/01/14 12:32:48;;;;;;;0.83;0.83;;;4.50;1.00;;;;;;5077744;28;20224;-88
2024/01/14 12:35:14;;;;;;;0.80;0.80;;;4.80;1.00;;;;;;5076945;28;20190;-89
2024/01/14 12:37:41;;;;;;;0.80;0.80;;;5.10;1.00;;;;;;5077225;28;20187;-87
2024/01/14 12:40:09;;;;;;;0.80;0.80;;;5.20;1.00;;;;;;5079576;28;20203;-87
2024/01/14 12:42:34;;;;;;;0.80;0.80;;;5.20;1.00;;;;;;5058962;28;20194;-89
2024/01/14 12:45:01;;;;;;;0.80;0.80;;;5.30;1.00;;;;;;5076557;28;20558;-88
2024/01/14 12:47:26;;;;;;;0.70;0.70;;;5.40;1.00;;;;;;5058169;28;20201;-89
2024/01/14 12:49:54;;;;;;;0.70;0.70;;;5.70;1.00;;;;;;5075936;28;20194;-87
2024/01/14 12:52:20;;;;;;;0.70;0.70;;;6.10;1.00;;;;;;5077072;28;20265;-87